Terminal Aerodrome Forecast
Issued by NWS Key West, FL

Home | Current Version | Previous Version | Text Only | Print | Product List | Glossary On
Versions: 1 2 3 4 5 6 7 8 9 10 11 12 13 14 15 16 17 18 19 20 21 22 23 24 25 26 27 28 29 30 31 32 33 34 35 36 37 38 39 40 41 42
374
FTUS42 KKEY 221740
TAFEYW
TAF
KEYW 221740Z 2218/2318 19016G29KT P6SM SCT022 SCT050
     FM230300 21025G35KT P6SM VCSH SCT022 BKN050
      TEMPO 2303/2307 27030G40KT 1SM +TSRA BKN022CB
     FM231000 25025G37KT P6SM SCT022 BKN050=

USA.gov is the U.S. government's official web portal to all federal, state and local government web resources and services.